createdAt,value
2023-04-30T00:00:42.646Z,11.30
2023-04-30T00:03:14.445Z,11.40
2023-04-30T00:05:49.878Z,11.40
2023-04-30T00:08:21.632Z,13.00
2023-04-30T00:10:53.325Z,11.30
2023-04-30T00:13:25.318Z,11.30
2023-04-30T00:15:57.032Z,11.30
2023-04-30T00:18:28.813Z,11.20
2023-04-30T00:21:00.537Z,11.20
2023-04-30T00:23:32.298Z,11.20
2023-04-30T00:26:04.030Z,11.20
2023-04-30T00:28:35.768Z,11.40
2023-04-30T00:31:09.221Z,11.10
2023-04-30T00:33:41.031Z,11.10
2023-04-30T00:36:12.772Z,11.10
2023-04-30T00:38:44.461Z,11.10
2023-04-30T00:41:16.718Z,11.10
2023-04-30T00:43:48.424Z,11.10
2023-04-30T00:46:20.511Z,11.00
2023-04-30T00:48:52.553Z,11.00
2023-04-30T00:51:24.357Z,11.00
2023-04-30T00:53:56.606Z,11.10
2023-04-30T00:56:30.872Z,11.00
2023-04-30T00:59:02.708Z,11.00
2023-04-30T01:01:34.456Z,11.10
2023-04-30T01:04:06.271Z,11.10
2023-04-30T01:06:38.528Z,11.10
2023-04-30T01:09:10.529Z,11.10
2023-04-30T01:12:05.393Z,11.10
2023-04-30T01:14:53.700Z,11.10
2023-04-30T01:17:41.704Z,11.10
2023-04-30T01:20:14.905Z,11.10
2023-04-30T01:22:54.941Z,11.20
2023-04-30T01:25:42.972Z,11.20
2023-04-30T01:28:24.636Z,11.20
2023-04-30T01:30:56.729Z,11.10
2023-04-30T01:33:28.469Z,11.10
2023-04-30T01:36:24.341Z,11.10
2023-04-30T01:39:16.024Z,11.10
2023-04-30T01:42:17.588Z,11.10
2023-04-30T01:45:15.025Z,11.00
2023-04-30T01:47:52.402Z,11.00
2023-04-30T01:50:42.907Z,11.00
2023-04-30T01:53:23.658Z,11.00
2023-04-30T01:56:02.809Z,11.00
2023-04-30T01:58:37.702Z,10.90
2023-04-30T02:01:26.466Z,10.90
2023-04-30T02:03:59.170Z,10.90
2023-04-30T02:06:31.811Z,10.90
2023-04-30T02:09:06.149Z,11.00
2023-04-30T02:11:37.994Z,10.90
2023-04-30T02:14:09.799Z,10.90
2023-04-30T02:16:41.766Z,10.90
2023-04-30T02:19:13.824Z,10.90
2023-04-30T02:21:45.528Z,10.80
2023-04-30T02:24:17.290Z,10.80
2023-04-30T02:26:49.036Z,10.80
2023-04-30T02:29:20.832Z,10.80
2023-04-30T02:31:52.657Z,10.70
2023-04-30T02:34:24.557Z,10.70
2023-04-30T02:36:56.249Z,10.60
2023-04-30T02:39:28.053Z,10.70
2023-04-30T02:42:00.101Z,10.60
2023-04-30T02:44:31.934Z,10.60
2023-04-30T02:47:03.687Z,10.60
2023-04-30T02:49:36.451Z,10.50
2023-04-30T02:52:09.934Z,10.50
2023-04-30T02:54:42.887Z,10.50
2023-04-30T02:57:14.712Z,10.50
2023-04-30T02:59:46.684Z,10.50
2023-04-30T03:02:21.587Z,10.40
2023-04-30T03:04:53.987Z,10.40
2023-04-30T03:07:25.863Z,10.40
2023-04-30T03:09:57.579Z,10.40
2023-04-30T03:12:29.308Z,10.40
2023-04-30T03:15:01.044Z,10.40
2023-04-30T03:17:32.794Z,10.40
2023-04-30T03:20:05.030Z,10.40
2023-04-30T03:22:36.769Z,10.40
2023-04-30T03:25:09.163Z,10.40
2023-04-30T03:27:41.003Z,10.40
2023-04-30T03:30:12.729Z,10.40
2023-04-30T03:32:44.613Z,10.40
2023-04-30T03:35:16.661Z,10.40
2023-04-30T03:37:48.402Z,8.30
2023-04-30T03:40:20.319Z,10.40
2023-04-30T03:42:52.024Z,10.40
2023-04-30T03:45:23.776Z,10.40
2023-04-30T03:47:55.831Z,10.40
2023-04-30T03:50:27.625Z,10.40
2023-04-30T03:52:59.481Z,10.40
2023-04-30T03:55:31.508Z,10.40
2023-04-30T03:58:03.616Z,10.40
2023-04-30T04:00:35.553Z,10.40
2023-04-30T04:03:07.427Z,10.40
2023-04-30T04:05:39.188Z,10.40
2023-04-30T04:08:11.218Z,10.40
2023-04-30T04:10:43.158Z,10.40
2023-04-30T04:13:15.191Z,10.40
2023-04-30T04:15:46.961Z,10.40
2023-04-30T04:18:18.769Z,10.40
2023-04-30T04:20:50.815Z,10.30
2023-04-30T04:23:23.256Z,10.30
2023-04-30T04:25:55.133Z,10.30
2023-04-30T04:28:27.275Z,10.30
2023-04-30T04:30:59.606Z,10.30
2023-04-30T04:33:31.630Z,10.30
2023-04-30T04:36:03.776Z,10.30
2023-04-30T04:38:35.493Z,10.30
2023-04-30T04:41:08.323Z,10.30
2023-04-30T04:43:40.994Z,10.40
2023-04-30T04:46:14.368Z,10.40
2023-04-30T04:48:46.835Z,10.40
2023-04-30T04:51:19.099Z,10.50
2023-04-30T04:53:50.814Z,10.50
2023-04-30T04:56:23.568Z,10.50
2023-04-30T04:58:55.341Z,10.50
2023-04-30T05:01:27.497Z,10.60
2023-04-30T05:03:59.759Z,10.60
2023-04-30T05:06:32.179Z,10.70
2023-04-30T05:09:08.843Z,10.70
2023-04-30T05:11:41.610Z,10.80
2023-04-30T05:14:13.452Z,10.90
2023-04-30T05:16:45.685Z,11.00
2023-04-30T05:19:17.443Z,11.10
2023-04-30T05:21:49.153Z,11.30
2023-04-30T05:24:20.907Z,11.90
2023-04-30T05:26:52.608Z,12.30
2023-04-30T05:29:24.400Z,12.50
2023-04-30T05:31:56.246Z,12.50
2023-04-30T05:34:28.087Z,12.70
2023-04-30T05:36:59.765Z,13.10
2023-04-30T05:39:31.527Z,12.50
2023-04-30T05:42:03.423Z,13.50
2023-04-30T05:44:35.129Z,13.90
2023-04-30T05:47:07.015Z,14.20
2023-04-30T05:49:38.714Z,14.50
2023-04-30T05:52:11.090Z,14.90
2023-04-30T05:54:42.963Z,15.20
2023-04-30T05:57:14.747Z,15.40
2023-04-30T05:59:46.468Z,15.50
2023-04-30T06:02:18.183Z,15.70
2023-04-30T06:04:50.091Z,15.40
2023-04-30T06:07:21.830Z,15.20
2023-04-30T06:09:53.721Z,15.30
2023-04-30T06:12:26.020Z,15.40
2023-04-30T06:14:58.177Z,15.30
2023-04-30T06:17:29.989Z,15.40
2023-04-30T06:20:06.600Z,15.10
2023-04-30T06:22:38.315Z,15.00
2023-04-30T06:25:10.285Z,15.10
2023-04-30T06:27:42.064Z,15.30
2023-04-30T06:30:13.862Z,15.50
2023-04-30T06:32:46.029Z,15.80
2023-04-30T06:35:17.782Z,15.80
2023-04-30T06:37:49.467Z,16.00
2023-04-30T06:40:21.173Z,16.10
2023-04-30T06:42:54.421Z,16.10
2023-04-30T06:45:26.159Z,16.20
2023-04-30T06:47:59.462Z,16.10
2023-04-30T06:50:31.418Z,16.20
2023-04-30T06:53:03.150Z,16.40
2023-04-30T06:55:34.884Z,16.50
2023-04-30T06:58:06.744Z,16.60
2023-04-30T07:00:38.599Z,16.70
2023-04-30T07:03:10.394Z,16.70
2023-04-30T07:05:42.230Z,16.70
2023-04-30T07:08:15.103Z,16.50
2023-04-30T07:10:46.843Z,16.30
2023-04-30T07:13:18.553Z,16.10
2023-04-30T07:15:50.432Z,16.00
2023-04-30T07:18:22.142Z,16.00
2023-04-30T07:20:53.922Z,15.90
2023-04-30T07:23:26.473Z,15.70
2023-04-30T07:25:59.422Z,15.70
2023-04-30T07:28:31.101Z,15.80
2023-04-30T07:31:02.892Z,16.10
2023-04-30T07:33:34.611Z,16.20
2023-04-30T07:36:06.519Z,16.60
2023-04-30T07:38:38.236Z,16.60
2023-04-30T07:41:10.882Z,16.60
2023-04-30T07:43:42.578Z,16.60
2023-04-30T07:46:14.360Z,16.50
2023-04-30T07:48:46.447Z,16.50
2023-04-30T07:51:18.172Z,16.50
2023-04-30T07:53:49.850Z,16.60
2023-04-30T07:56:21.656Z,16.30
2023-04-30T07:58:53.369Z,16.10
2023-04-30T08:01:25.293Z,16.20
2023-04-30T08:03:57.135Z,16.40
2023-04-30T08:06:29.059Z,16.40
2023-04-30T08:09:00.935Z,16.40
2023-04-30T08:11:32.714Z,16.30
2023-04-30T08:14:04.820Z,16.30
2023-04-30T08:16:36.878Z,16.30
2023-04-30T08:19:08.584Z,16.10
2023-04-30T08:21:40.437Z,15.80
2023-04-30T08:24:12.112Z,15.70
2023-04-30T08:26:44.164Z,15.40
2023-04-30T08:29:15.859Z,15.20
2023-04-30T08:31:47.683Z,17.40
2023-04-30T08:34:19.399Z,15.00
2023-04-30T08:36:51.152Z,15.00
2023-04-30T08:39:22.924Z,15.00
2023-04-30T08:41:56.302Z,15.10
2023-04-30T08:44:28.358Z,15.20
2023-04-30T08:47:01.500Z,15.30
2023-04-30T08:49:33.648Z,15.20
2023-04-30T08:52:05.614Z,15.30
2023-04-30T08:54:37.778Z,15.60
2023-04-30T08:57:10.001Z,15.60
2023-04-30T08:59:44.737Z,15.60
2023-04-30T09:02:16.539Z,15.70
2023-04-30T09:04:50.502Z,15.70
2023-04-30T09:07:25.355Z,15.60
2023-04-30T09:09:58.489Z,15.50
2023-04-30T09:12:30.195Z,15.50
2023-04-30T09:15:03.662Z,15.40
2023-04-30T09:17:35.978Z,15.30
2023-04-30T09:20:12.943Z,15.20
2023-04-30T09:22:44.721Z,15.30
2023-04-30T09:25:16.680Z,15.30
2023-04-30T09:27:48.436Z,15.40
2023-04-30T09:30:32.850Z,15.50
2023-04-30T09:33:04.743Z,15.60
2023-04-30T09:35:42.112Z,15.60
2023-04-30T09:38:31.944Z,15.70
2023-04-30T09:41:03.954Z,15.80
2023-04-30T09:43:45.072Z,15.80
2023-04-30T09:46:19.710Z,15.80
2023-04-30T09:49:02.629Z,15.90
2023-04-30T09:51:35.666Z,16.50
2023-04-30T09:54:10.306Z,16.10
2023-04-30T09:56:42.058Z,16.00
2023-04-30T09:59:16.141Z,16.10
2023-04-30T10:01:48.553Z,16.30
2023-04-30T10:04:21.720Z,16.80
2023-04-30T10:06:56.821Z,17.30
2023-04-30T10:09:39.112Z,17.40
2023-04-30T10:12:16.195Z,17.40
2023-04-30T10:14:55.340Z,17.40
2023-04-30T10:17:29.756Z,17.60
2023-04-30T10:20:05.918Z,18.00
2023-04-30T10:22:37.900Z,18.20
2023-04-30T10:25:13.547Z,18.10
2023-04-30T10:27:46.631Z,18.00
2023-04-30T10:30:18.615Z,17.90
2023-04-30T10:33:05.890Z,17.80
2023-04-30T10:35:47.205Z,17.70
2023-04-30T10:38:23.118Z,17.70
2023-04-30T10:41:02.224Z,17.60
2023-04-30T10:43:36.469Z,17.50
2023-04-30T10:46:08.898Z,17.50
2023-04-30T10:48:40.654Z,17.40
2023-04-30T10:51:12.387Z,17.70
2023-04-30T10:53:44.523Z,18.10
2023-04-30T10:56:31.204Z,18.00
2023-04-30T10:59:03.148Z,18.00
2023-04-30T11:01:58.918Z,18.40
2023-04-30T11:04:30.853Z,18.60
2023-04-30T11:07:09.525Z,18.50
2023-04-30T11:09:43.976Z,18.20
2023-04-30T11:12:21.831Z,18.10
2023-04-30T11:14:54.015Z,17.80
2023-04-30T11:17:27.662Z,17.70
2023-04-30T11:20:01.724Z,17.70
2023-04-30T11:22:36.304Z,17.80
2023-04-30T11:25:19.680Z,17.80
2023-04-30T11:27:52.612Z,17.80
2023-04-30T11:30:25.099Z,17.70
2023-04-30T11:33:00.636Z,17.80
2023-04-30T11:35:32.623Z,17.90
2023-04-30T11:38:07.018Z,17.70
2023-04-30T11:40:39.090Z,17.60
2023-04-30T11:43:33.437Z,17.60
2023-04-30T11:46:14.221Z,19.10
2023-04-30T11:48:46.923Z,17.50
2023-04-30T11:51:24.915Z,17.60
2023-04-30T11:53:57.236Z,18.00
2023-04-30T11:56:28.933Z,18.30
2023-04-30T11:59:00.617Z,18.40
2023-04-30T12:01:32.637Z,18.50
2023-04-30T12:04:04.890Z,18.30
2023-04-30T12:06:36.874Z,17.90
2023-04-30T12:09:09.572Z,18.20
2023-04-30T12:11:41.885Z,18.40
2023-04-30T12:14:14.662Z,18.40
2023-04-30T12:16:51.584Z,18.50
2023-04-30T12:19:26.924Z,18.70
2023-04-30T12:21:59.044Z,19.00
2023-04-30T12:24:30.894Z,19.10
2023-04-30T12:27:03.226Z,19.00
2023-04-30T12:29:34.987Z,18.70
2023-04-30T12:32:06.757Z,18.50
2023-04-30T12:34:38.612Z,18.40
2023-04-30T12:37:10.588Z,18.30
2023-04-30T12:39:42.352Z,18.20
2023-04-30T12:42:19.962Z,17.90
2023-04-30T12:44:51.660Z,18.10
2023-04-30T12:47:25.201Z,18.40
2023-04-30T12:49:57.087Z,18.70
2023-04-30T12:52:28.974Z,18.80
2023-04-30T12:55:21.600Z,18.80
2023-04-30T12:58:06.294Z,18.60
2023-04-30T13:00:45.803Z,18.20
2023-04-30T13:03:21.808Z,18.20
2023-04-30T13:05:54.722Z,18.10
2023-04-30T13:08:26.566Z,20.10
2023-04-30T13:10:58.513Z,18.00
2023-04-30T13:13:30.386Z,18.00
2023-04-30T13:16:02.356Z,18.00
2023-04-30T13:18:34.250Z,18.40
2023-04-30T13:21:06.279Z,18.60
2023-04-30T13:23:48.662Z,18.60
2023-04-30T13:26:24.477Z,18.50
2023-04-30T13:28:56.260Z,18.30
2023-04-30T13:31:27.980Z,18.10
2023-04-30T13:33:59.670Z,18.10
2023-04-30T13:36:31.417Z,18.50
2023-04-30T13:39:04.300Z,18.90
2023-04-30T13:41:36.073Z,19.20
2023-04-30T13:44:07.829Z,19.30
2023-04-30T13:46:39.632Z,19.30
2023-04-30T13:49:11.339Z,19.00
2023-04-30T13:51:43.066Z,18.80
2023-04-30T13:54:14.788Z,18.50
2023-04-30T13:56:46.499Z,18.30
2023-04-30T13:59:18.495Z,18.20
2023-04-30T14:01:50.257Z,18.40
2023-04-30T14:04:21.997Z,18.90
2023-04-30T14:06:56.564Z,19.30
2023-04-30T14:09:29.063Z,19.60
2023-04-30T14:12:00.806Z,19.60
2023-04-30T14:14:32.606Z,19.40
2023-04-30T14:17:05.043Z,19.10
2023-04-30T14:19:36.812Z,19.20
2023-04-30T14:22:08.500Z,19.10
2023-04-30T14:24:40.415Z,18.80
2023-04-30T14:27:12.096Z,18.60
2023-04-30T14:29:43.908Z,18.50
2023-04-30T14:32:15.991Z,18.50
2023-04-30T14:34:47.820Z,18.60
2023-04-30T14:37:19.987Z,19.10
2023-04-30T14:39:51.931Z,19.60
2023-04-30T14:42:23.697Z,20.10
2023-04-30T14:44:55.406Z,20.20
2023-04-30T14:47:28.289Z,20.20
2023-04-30T14:50:02.169Z,20.10
2023-04-30T14:52:34.405Z,20.00
2023-04-30T14:55:06.588Z,19.80
2023-04-30T14:57:38.371Z,19.60
2023-04-30T15:00:11.078Z,19.50
2023-04-30T15:02:42.924Z,19.50
2023-04-30T15:05:14.744Z,19.70
2023-04-30T15:07:46.632Z,19.70
2023-04-30T15:10:18.531Z,19.60
2023-04-30T15:12:50.303Z,19.40
2023-04-30T15:15:27.719Z,19.10
2023-04-30T15:18:01.412Z,18.90
2023-04-30T15:20:33.277Z,18.80
2023-04-30T15:23:05.388Z,17.40
2023-04-30T15:25:37.802Z,17.40
2023-04-30T15:28:09.762Z,18.60
2023-04-30T15:30:41.831Z,18.90
2023-04-30T15:33:13.637Z,19.00
2023-04-30T15:35:47.275Z,19.10
2023-04-30T15:38:19.251Z,19.30
2023-04-30T15:40:50.990Z,19.60
2023-04-30T15:43:23.155Z,19.70
2023-04-30T15:45:54.878Z,19.90
2023-04-30T15:48:26.689Z,19.60
2023-04-30T15:50:59.146Z,19.30
2023-04-30T15:53:30.854Z,19.10
2023-04-30T15:56:04.457Z,18.90
2023-04-30T15:58:36.345Z,18.80
2023-04-30T16:01:08.712Z,18.60
2023-04-30T16:03:40.556Z,19.30
2023-04-30T16:06:12.365Z,18.80
2023-04-30T16:08:45.960Z,19.00
2023-04-30T16:11:17.773Z,19.00
2023-04-30T16:13:53.500Z,19.00
2023-04-30T16:16:27.326Z,18.80
2023-04-30T16:18:59.725Z,18.70
2023-04-30T16:21:34.628Z,18.50
2023-04-30T16:24:09.218Z,18.40
2023-04-30T16:26:40.958Z,18.40
2023-04-30T16:29:12.798Z,18.50
2023-04-30T16:31:44.672Z,18.60
2023-04-30T16:34:16.414Z,18.50
2023-04-30T16:36:48.180Z,18.30
2023-04-30T16:39:19.874Z,18.20
2023-04-30T16:41:51.567Z,18.00
2023-04-30T16:44:23.249Z,18.00
2023-04-30T16:46:56.978Z,18.00
2023-04-30T16:49:28.685Z,17.90
2023-04-30T16:52:02.306Z,17.90
2023-04-30T16:54:34.015Z,17.90
2023-04-30T16:57:05.775Z,17.90
2023-04-30T16:59:37.558Z,17.90
2023-04-30T17:02:09.893Z,17.90
2023-04-30T17:04:42.050Z,17.90
2023-04-30T17:07:13.842Z,17.90
2023-04-30T17:09:45.626Z,17.80
2023-04-30T17:12:17.328Z,17.80
2023-04-30T17:14:49.035Z,17.80
2023-04-30T17:17:20.768Z,17.70
2023-04-30T17:19:52.521Z,17.70
2023-04-30T17:22:24.866Z,17.60
2023-04-30T17:24:57.692Z,17.50
2023-04-30T17:27:31.203Z,17.40
2023-04-30T17:30:04.417Z,18.20
2023-04-30T17:32:36.434Z,17.10
2023-04-30T17:35:14.555Z,17.00
2023-04-30T17:38:01.579Z,16.90
2023-04-30T17:41:00.127Z,17.50
2023-04-30T17:43:55.780Z,16.50
2023-04-30T17:46:35.522Z,16.40
2023-04-30T17:49:39.957Z,15.40
2023-04-30T17:52:18.346Z,16.40
2023-04-30T17:55:07.385Z,18.20
2023-04-30T17:58:10.149Z,17.90
2023-04-30T18:01:01.136Z,15.70
2023-04-30T18:06:55.522Z,16.30
2023-04-30T18:09:53.807Z,16.50
2023-04-30T18:12:33.069Z,16.30
2023-04-30T18:16:12.840Z,16.00
2023-04-30T18:19:26.284Z,16.20
2023-04-30T18:22:00.506Z,15.10
2023-04-30T18:24:32.303Z,15.20
2023-04-30T18:27:05.119Z,15.20
2023-04-30T18:29:37.373Z,15.10
2023-04-30T18:32:09.205Z,15.00
2023-04-30T18:34:41.354Z,16.90
2023-04-30T18:37:13.511Z,14.90
2023-04-30T18:39:45.194Z,14.80
2023-04-30T18:42:17.265Z,14.70
2023-04-30T18:44:48.966Z,14.70
2023-04-30T18:47:20.658Z,14.60
2023-04-30T18:49:52.535Z,14.60
2023-04-30T18:52:24.380Z,14.50
2023-04-30T18:54:56.262Z,14.40
2023-04-30T18:57:28.396Z,14.30
2023-04-30T19:00:00.157Z,14.30
2023-04-30T19:02:31.967Z,14.20
2023-04-30T19:05:04.002Z,14.20
2023-04-30T19:07:35.710Z,14.10
2023-04-30T19:10:07.677Z,14.10
2023-04-30T19:12:39.456Z,14.00
2023-04-30T19:15:14.796Z,13.90
2023-04-30T19:17:46.577Z,13.90
2023-04-30T19:20:18.487Z,13.90
2023-04-30T19:22:50.537Z,13.80
2023-04-30T19:25:23.392Z,13.70
2023-04-30T19:27:55.144Z,13.70
2023-04-30T19:30:26.874Z,13.70
2023-04-30T19:32:58.580Z,13.60
2023-04-30T19:35:30.271Z,13.60
2023-04-30T19:38:02.463Z,13.50
2023-04-30T19:40:34.483Z,13.50
2023-04-30T19:43:06.234Z,13.40
2023-04-30T19:45:52.939Z,13.40
2023-04-30T19:48:25.653Z,13.40
2023-04-30T19:50:58.073Z,13.40
2023-04-30T19:53:30.289Z,13.40
2023-04-30T19:56:01.991Z,13.30
2023-04-30T19:58:33.719Z,13.20
2023-04-30T20:01:05.412Z,13.10
2023-04-30T20:03:37.389Z,13.00
2023-04-30T20:06:09.999Z,12.90
2023-04-30T20:08:41.901Z,12.90
2023-04-30T20:11:13.606Z,12.90
2023-04-30T20:13:45.311Z,12.90
2023-04-30T20:16:19.163Z,12.90
2023-04-30T20:18:50.955Z,12.90
2023-04-30T20:21:24.860Z,12.80
2023-04-30T20:23:56.884Z,12.70
2023-04-30T20:26:28.600Z,12.60
2023-04-30T20:29:00.992Z,12.50
2023-04-30T20:31:32.980Z,12.50
2023-04-30T20:34:04.942Z,12.40
2023-04-30T20:36:36.671Z,12.40
2023-04-30T20:39:08.744Z,12.40
2023-04-30T20:41:40.426Z,12.30
2023-04-30T20:44:12.169Z,12.30
2023-04-30T20:46:44.006Z,12.30
2023-04-30T20:49:16.007Z,12.20
2023-04-30T20:51:47.691Z,12.10
2023-04-30T20:54:19.392Z,12.00
2023-04-30T20:56:51.610Z,12.00
2023-04-30T20:59:23.402Z,11.90
2023-04-30T21:01:55.254Z,11.90
2023-04-30T21:04:27.460Z,11.90
2023-04-30T21:06:59.213Z,11.90
2023-04-30T21:09:32.713Z,11.80
2023-04-30T21:12:05.339Z,11.70
2023-04-30T21:14:37.525Z,11.70
2023-04-30T21:17:09.576Z,11.70
2023-04-30T21:19:41.300Z,11.60
2023-04-30T21:22:13.093Z,11.60
2023-04-30T21:24:44.842Z,11.50
2023-04-30T21:27:16.572Z,11.50
2023-04-30T21:29:48.468Z,11.40
2023-04-30T21:32:20.298Z,11.50
2023-04-30T21:34:52.027Z,11.40
2023-04-30T21:37:23.743Z,11.30
2023-04-30T21:39:56.527Z,11.30
2023-04-30T21:42:29.004Z,11.30
2023-04-30T21:45:00.745Z,11.10
2023-04-30T21:47:32.464Z,11.00
2023-04-30T21:50:05.731Z,10.80
2023-04-30T21:52:37.501Z,10.80
2023-04-30T21:55:09.639Z,10.70
2023-04-30T21:57:41.359Z,10.70
2023-04-30T22:00:14.463Z,10.60
2023-04-30T22:02:52.288Z,10.60
2023-04-30T22:05:24.029Z,10.60
2023-04-30T22:07:55.721Z,10.60
2023-04-30T22:10:27.424Z,10.60
2023-04-30T22:12:59.121Z,10.50
2023-04-30T22:15:41.184Z,10.50
2023-04-30T22:18:20.568Z,10.50
2023-04-30T22:20:52.597Z,10.50
2023-04-30T22:23:24.277Z,10.50
2023-04-30T22:25:56.039Z,10.50
2023-04-30T22:28:27.740Z,10.50
2023-04-30T22:30:59.781Z,10.50
2023-04-30T22:33:36.545Z,10.40
2023-04-30T22:36:08.940Z,10.40
2023-04-30T22:38:40.838Z,10.40
2023-04-30T22:41:12.601Z,10.40
2023-04-30T22:43:47.251Z,10.40
2023-04-30T22:46:19.091Z,10.40
2023-04-30T22:48:50.937Z,10.30
2023-04-30T22:51:22.686Z,10.20
2023-04-30T22:53:56.313Z,10.20
2023-04-30T22:56:28.099Z,10.20
2023-04-30T22:59:00.248Z,10.10
2023-04-30T23:01:32.377Z,10.10
2023-04-30T23:04:07.232Z,10.10
2023-04-30T23:06:39.540Z,10.10
2023-04-30T23:09:12.617Z,10.10
2023-04-30T23:11:44.940Z,10.10
2023-04-30T23:14:17.308Z,10.10
2023-04-30T23:16:49.088Z,10.10
2023-04-30T23:19:20.820Z,10.00
2023-04-30T23:21:52.825Z,10.00
2023-04-30T23:24:24.517Z,10.00
2023-04-30T23:26:57.739Z,10.00
2023-04-30T23:29:29.727Z,9.90
2023-04-30T23:32:01.549Z,9.90
2023-04-30T23:34:33.280Z,9.90
2023-04-30T23:37:05.009Z,9.90
2023-04-30T23:39:37.229Z,9.90
2023-04-30T23:42:08.952Z,9.90
2023-04-30T23:44:40.719Z,9.80
2023-04-30T23:47:12.468Z,9.80
2023-04-30T23:49:46.038Z,9.80
2023-04-30T23:52:17.974Z,9.80
2023-04-30T23:54:49.896Z,9.70
2023-04-30T23:57:21.565Z,9.70
2023-04-30T23:59:53.450Z,9.60
